sensor_id;sensor_type;location;lat;lon;timestamp;pressure;altitude;pressure_sealevel;temperature;humidity
38303;BME280;24103;42.454;27.400;2023-01-28T00:00:34;99951.63;;;5.60;100.00
38303;BME280;24103;42.454;27.400;2023-01-28T00:03:00;99958.91;;;5.53;100.00
38303;BME280;24103;42.454;27.400;2023-01-28T00:05:26;99959.28;;;5.64;100.00
38303;BME280;24103;42.454;27.400;2023-01-28T00:07:54;99920.38;;;5.36;100.00
38303;BME280;24103;42.454;27.400;2023-01-28T00:10:20;99960.81;;;5.30;100.00
38303;BME280;24103;42.454;27.400;2023-01-28T00:12:46;99952.66;;;5.17;100.00
38303;BME280;24103;42.454;27.400;2023-01-28T00:15:12;99941.00;;;5.25;100.00
38303;BME280;24103;42.454;27.400;2023-01-28T00:17:38;99957.38;;;5.30;100.00
38303;BME280;24103;42.454;27.400;2023-01-28T00:20:04;99962.56;;;5.11;100.00
38303;BME280;24103;42.454;27.400;2023-01-28T00:22:30;99950.53;;;5.07;100.00
38303;BME280;24103;42.454;27.400;2023-01-28T00:24:56;99966.31;;;5.05;100.00
38303;BME280;24103;42.454;27.400;2023-01-28T00:27:22;99955.41;;;4.75;100.00
38303;BME280;24103;42.454;27.400;2023-01-28T00:29:47;99962.50;;;4.52;100.00
38303;BME280;24103;42.454;27.400;2023-01-28T00:32:13;99961.97;;;4.44;100.00
38303;BME280;24103;42.454;27.400;2023-01-28T00:34:38;99974.63;;;4.53;100.00
38303;BME280;24103;42.454;27.400;2023-01-28T00:37:04;99977.19;;;4.34;100.00
38303;BME280;24103;42.454;27.400;2023-01-28T00:39:30;99988.06;;;4.23;100.00
38303;BME280;24103;42.454;27.400;2023-01-28T00:41:56;99980.44;;;3.97;100.00
38303;BME280;24103;42.454;27.400;2023-01-28T00:44:21;99979.81;;;4.12;100.00
38303;BME280;24103;42.454;27.400;2023-01-28T00:46:47;99976.47;;;4.09;100.00
38303;BME280;24103;42.454;27.400;2023-01-28T00:49:13;99996.84;;;4.00;100.00
38303;BME280;24103;42.454;27.400;2023-01-28T00:51:38;99978.06;;;3.91;100.00
38303;BME280;24103;42.454;27.400;2023-01-28T00:54:04;99998.63;;;4.00;100.00
38303;BME280;24103;42.454;27.400;2023-01-28T00:56:29;99993.84;;;3.87;100.00
38303;BME280;24103;42.454;27.400;2023-01-28T00:58:56;99994.06;;;3.83;100.00
38303;BME280;24103;42.454;27.400;2023-01-28T01:01:24;100000.63;;;3.93;100.00
38303;BME280;24103;42.454;27.400;2023-01-28T01:03:50;99988.78;;;3.84;100.00
38303;BME280;24103;42.454;27.400;2023-01-28T01:06:23;100001.28;;;3.76;100.00
38303;BME280;24103;42.454;27.400;2023-01-28T01:08:50;100002.97;;;3.77;100.00
38303;BME280;24103;42.454;27.400;2023-01-28T01:11:16;100011.53;;;3.81;100.00
38303;BME280;24103;42.454;27.400;2023-01-28T01:13:42;100007.03;;;3.62;100.00
38303;BME280;24103;42.454;27.400;2023-01-28T01:16:15;100007.44;;;3.52;100.00
38303;BME280;24103;42.454;27.400;2023-01-28T01:18:44;100014.06;;;3.60;100.00
38303;BME280;24103;42.454;27.400;2023-01-28T01:21:14;100007.19;;;3.58;100.00
38303;BME280;24103;42.454;27.400;2023-01-28T01:23:41;100001.13;;;3.57;100.00
38303;BME280;24103;42.454;27.400;2023-01-28T01:26:07;99994.94;;;3.60;100.00
38303;BME280;24103;42.454;27.400;2023-01-28T01:28:33;100006.97;;;3.64;100.00
38303;BME280;24103;42.454;27.400;2023-01-28T01:31:04;99989.94;;;3.54;100.00
38303;BME280;24103;42.454;27.400;2023-01-28T01:33:31;100004.41;;;3.62;100.00
38303;BME280;24103;42.454;27.400;2023-01-28T01:35:57;100005.88;;;3.46;100.00
38303;BME280;24103;42.454;27.400;2023-01-28T01:38:23;100009.78;;;3.58;100.00
38303;BME280;24103;42.454;27.400;2023-01-28T01:40:49;100003.28;;;3.46;100.00
38303;BME280;24103;42.454;27.400;2023-01-28T01:43:21;100016.47;;;3.66;100.00
38303;BME280;24103;42.454;27.400;2023-01-28T01:45:55;100014.53;;;3.72;100.00
38303;BME280;24103;42.454;27.400;2023-01-28T01:48:29;100012.75;;;3.72;100.00
38303;BME280;24103;42.454;27.400;2023-01-28T01:51:03;100012.91;;;3.67;100.00
38303;BME280;24103;42.454;27.400;2023-01-28T01:53:32;99983.88;;;3.53;100.00
38303;BME280;24103;42.454;27.400;2023-01-28T01:55:59;100005.72;;;3.50;100.00
38303;BME280;24103;42.454;27.400;2023-01-28T01:58:29;100006.81;;;3.45;100.00
38303;BME280;24103;42.454;27.400;2023-01-28T02:00:57;100017.59;;;3.36;100.00
38303;BME280;24103;42.454;27.400;2023-01-28T02:03:28;100026.00;;;3.44;100.00
38303;BME280;24103;42.454;27.400;2023-01-28T02:05:58;100029.81;;;3.35;100.00
38303;BME280;24103;42.454;27.400;2023-01-28T02:08:23;100030.47;;;3.40;100.00
38303;BME280;24103;42.454;27.400;2023-01-28T02:11:04;100047.00;;;3.41;100.00
38303;BME280;24103;42.454;27.400;2023-01-28T02:13:39;100043.13;;;3.51;100.00
38303;BME280;24103;42.454;27.400;2023-01-28T02:16:07;100046.88;;;3.44;100.00
38303;BME280;24103;42.454;27.400;2023-01-28T02:18:33;100041.34;;;3.53;100.00
38303;BME280;24103;42.454;27.400;2023-01-28T02:27:23;100046.22;;;3.62;100.00
38303;BME280;24103;42.454;27.400;2023-01-28T02:29:54;100046.38;;;3.58;100.00
38303;BME280;24103;42.454;27.400;2023-01-28T02:37:38;100046.16;;;3.40;100.00
38303;BME280;24103;42.454;27.400;2023-01-28T02:40:21;100035.09;;;3.34;100.00
38303;BME280;24103;42.454;27.400;2023-01-28T02:42:47;100050.44;;;3.41;100.00
38303;BME280;24103;42.454;27.400;2023-01-28T02:45:22;100042.19;;;3.54;100.00
38303;BME280;24103;42.454;27.400;2023-01-28T02:47:48;100050.88;;;3.54;100.00
38303;BME280;24103;42.454;27.400;2023-01-28T02:50:33;100053.19;;;3.62;100.00
38303;BME280;24103;42.454;27.400;2023-01-28T02:53:11;100063.91;;;3.78;100.00
38303;BME280;24103;42.454;27.400;2023-01-28T02:58:47;100062.06;;;3.81;100.00
38303;BME280;24103;42.454;27.400;2023-01-28T03:01:29;100048.75;;;3.87;100.00
38303;BME280;24103;42.454;27.400;2023-01-28T03:04:12;100051.28;;;3.89;100.00
38303;BME280;24103;42.454;27.400;2023-01-28T03:06:49;100052.91;;;3.93;100.00
38303;BME280;24103;42.454;27.400;2023-01-28T03:09:19;100062.38;;;3.96;100.00
38303;BME280;24103;42.454;27.400;2023-01-28T03:12:03;100057.03;;;3.99;100.00
38303;BME280;24103;42.454;27.400;2023-01-28T03:14:52;100055.13;;;4.02;100.00
38303;BME280;24103;42.454;27.400;2023-01-28T03:17:48;100058.50;;;4.06;100.00
38303;BME280;24103;42.454;27.400;2023-01-28T03:20:55;100059.34;;;4.06;100.00
38303;BME280;24103;42.454;27.400;2023-01-28T03:24:04;100059.41;;;4.05;100.00
38303;BME280;24103;42.454;27.400;2023-01-28T03:27:04;100065.41;;;4.07;100.00
38303;BME280;24103;42.454;27.400;2023-01-28T03:29:50;100055.19;;;4.01;100.00
38303;BME280;24103;42.454;27.400;2023-01-28T03:32:38;100059.47;;;4.03;100.00
38303;BME280;24103;42.454;27.400;2023-01-28T03:35:28;100066.34;;;4.06;100.00
38303;BME280;24103;42.454;27.400;2023-01-28T03:38:15;100054.97;;;4.07;100.00
38303;BME280;24103;42.454;27.400;2023-01-28T03:40:52;100067.91;;;4.10;100.00
38303;BME280;24103;42.454;27.400;2023-01-28T03:43:19;100062.88;;;4.05;100.00
38303;BME280;24103;42.454;27.400;2023-01-28T03:45:45;100072.25;;;4.11;100.00
38303;BME280;24103;42.454;27.400;2023-01-28T03:48:16;100075.25;;;4.00;100.00
38303;BME280;24103;42.454;27.400;2023-01-28T03:50:42;100074.91;;;4.10;100.00
38303;BME280;24103;42.454;27.400;2023-01-28T03:53:07;100072.38;;;4.08;100.00
38303;BME280;24103;42.454;27.400;2023-01-28T03:55:46;100080.16;;;4.10;100.00
38303;BME280;24103;42.454;27.400;2023-01-28T03:58:12;100086.22;;;4.10;100.00
38303;BME280;24103;42.454;27.400;2023-01-28T04:00:38;100094.84;;;4.12;100.00
38303;BME280;24103;42.454;27.400;2023-01-28T04:03:07;100096.34;;;4.19;100.00
38303;BME280;24103;42.454;27.400;2023-01-28T04:05:41;100101.41;;;4.24;100.00
38303;BME280;24103;42.454;27.400;2023-01-28T04:08:07;100100.69;;;4.19;100.00
38303;BME280;24103;42.454;27.400;2023-01-28T04:10:32;100095.91;;;4.08;100.00
38303;BME280;24103;42.454;27.400;2023-01-28T04:12:57;100101.97;;;4.09;100.00
38303;BME280;24103;42.454;27.400;2023-01-28T04:15:23;100108.84;;;4.11;100.00
38303;BME280;24103;42.454;27.400;2023-01-28T04:17:48;100099.84;;;4.18;100.00
38303;BME280;24103;42.454;27.400;2023-01-28T04:20:14;100105.03;;;4.20;100.00
38303;BME280;24103;42.454;27.400;2023-01-28T04:22:39;100110.09;;;4.24;100.00
38303;BME280;24103;42.454;27.400;2023-01-28T04:25:05;100116.94;;;4.27;100.00
38303;BME280;24103;42.454;27.400;2023-01-28T04:27:31;100121.03;;;4.34;100.00
38303;BME280;24103;42.454;27.400;2023-01-28T04:29:56;100123.66;;;4.34;100.00
38303;BME280;24103;42.454;27.400;2023-01-28T04:32:21;100125.28;;;4.37;100.00
38303;BME280;24103;42.454;27.400;2023-01-28T04:34:47;100127.63;;;4.45;100.00
38303;BME280;24103;42.454;27.400;2023-01-28T04:37:12;100126.63;;;4.25;100.00
38303;BME280;24103;42.454;27.400;2023-01-28T04:39:37;100120.38;;;4.05;100.00
38303;BME280;24103;42.454;27.400;2023-01-28T04:42:03;100079.69;;;3.76;100.00
38303;BME280;24103;42.454;27.400;2023-01-28T04:44:28;100116.88;;;4.06;100.00
38303;BME280;24103;42.454;27.400;2023-01-28T04:46:53;100117.44;;;4.15;100.00
38303;BME280;24103;42.454;27.400;2023-01-28T04:49:19;100119.66;;;4.02;100.00
38303;BME280;24103;42.454;27.400;2023-01-28T04:51:44;100124.44;;;4.14;100.00
38303;BME280;24103;42.454;27.400;2023-01-28T04:54:09;100128.63;;;4.18;100.00
38303;BME280;24103;42.454;27.400;2023-01-28T04:56:35;100135.56;;;4.19;100.00
38303;BME280;24103;42.454;27.400;2023-01-28T04:59:00;100136.53;;;4.17;100.00
38303;BME280;24103;42.454;27.400;2023-01-28T05:01:26;100144.03;;;4.26;100.00
38303;BME280;24103;42.454;27.400;2023-01-28T05:03:52;100150.09;;;4.27;100.00
38303;BME280;24103;42.454;27.400;2023-01-28T05:06:17;100155.88;;;4.35;100.00
38303;BME280;24103;42.454;27.400;2023-01-28T05:08:42;100156.06;;;4.30;100.00
38303;BME280;24103;42.454;27.400;2023-01-28T05:11:10;100167.41;;;4.31;100.00
38303;BME280;24103;42.454;27.400;2023-01-28T05:13:35;100172.91;;;4.23;100.00
38303;BME280;24103;42.454;27.400;2023-01-28T05:16:01;100171.34;;;4.17;100.00
38303;BME280;24103;42.454;27.400;2023-01-28T05:18:26;100180.63;;;4.26;100.00
38303;BME280;24103;42.454;27.400;2023-01-28T05:20:51;100180.22;;;4.37;100.00
38303;BME280;24103;42.454;27.400;2023-01-28T05:23:17;100181.03;;;4.39;100.00
38303;BME280;24103;42.454;27.400;2023-01-28T05:25:42;100184.50;;;4.39;100.00
38303;BME280;24103;42.454;27.400;2023-01-28T05:28:08;100186.38;;;4.36;100.00
38303;BME280;24103;42.454;27.400;2023-01-28T05:30:33;100191.03;;;4.28;100.00
38303;BME280;24103;42.454;27.400;2023-01-28T05:32:58;100198.78;;;4.31;100.00
38303;BME280;24103;42.454;27.400;2023-01-28T05:35:24;100208.31;;;4.32;100.00
38303;BME280;24103;42.454;27.400;2023-01-28T05:37:49;100205.75;;;4.30;100.00
38303;BME280;24103;42.454;27.400;2023-01-28T05:40:15;100217.19;;;4.28;100.00
38303;BME280;24103;42.454;27.400;2023-01-28T05:42:41;100218.72;;;4.33;100.00
38303;BME280;24103;42.454;27.400;2023-01-28T05:45:06;100222.06;;;4.37;100.00
38303;BME280;24103;42.454;27.400;2023-01-28T05:47:32;100223.72;;;4.39;100.00
38303;BME280;24103;42.454;27.400;2023-01-28T05:49:58;100223.16;;;4.31;100.00
38303;BME280;24103;42.454;27.400;2023-01-28T05:52:23;100232.00;;;4.27;100.00
38303;BME280;24103;42.454;27.400;2023-01-28T05:54:49;100227.88;;;4.21;100.00
38303;BME280;24103;42.454;27.400;2023-01-28T05:57:14;100234.13;;;4.17;100.00
38303;BME280;24103;42.454;27.400;2023-01-28T05:59:39;100246.19;;;4.21;100.00
38303;BME280;24103;42.454;27.400;2023-01-28T06:02:05;100247.97;;;4.21;100.00
38303;BME280;24103;42.454;27.400;2023-01-28T06:04:30;100244.31;;;4.25;100.00
38303;BME280;24103;42.454;27.400;2023-01-28T06:06:55;100255.84;;;4.19;100.00
38303;BME280;24103;42.454;27.400;2023-01-28T06:09:21;100258.41;;;4.21;100.00
38303;BME280;24103;42.454;27.400;2023-01-28T06:11:46;100266.06;;;4.25;100.00
38303;BME280;24103;42.454;27.400;2023-01-28T06:14:14;100269.09;;;4.15;100.00
38303;BME280;24103;42.454;27.400;2023-01-28T06:16:39;100276.16;;;4.13;100.00
38303;BME280;24103;42.454;27.400;2023-01-28T06:19:04;100271.06;;;4.08;100.00
38303;BME280;24103;42.454;27.400;2023-01-28T06:21:30;100278.06;;;4.08;100.00
38303;BME280;24103;42.454;27.400;2023-01-28T06:23:55;100280.94;;;4.00;100.00
38303;BME280;24103;42.454;27.400;2023-01-28T06:26:21;100289.28;;;4.11;100.00
38303;BME280;24103;42.454;27.400;2023-01-28T06:28:46;100285.56;;;4.17;100.00
38303;BME280;24103;42.454;27.400;2023-01-28T06:31:11;100287.00;;;4.00;100.00
38303;BME280;24103;42.454;27.400;2023-01-28T06:33:37;100288.25;;;4.15;100.00
38303;BME280;24103;42.454;27.400;2023-01-28T06:36:02;100296.41;;;4.31;100.00
38303;BME280;24103;42.454;27.400;2023-01-28T06:38:28;100298.84;;;4.36;100.00
38303;BME280;24103;42.454;27.400;2023-01-28T06:40:53;100294.19;;;4.44;100.00
38303;BME280;24103;42.454;27.400;2023-01-28T06:43:20;100304.19;;;4.56;100.00
38303;BME280;24103;42.454;27.400;2023-01-28T06:45:45;100301.09;;;4.70;100.00
38303;BME280;24103;42.454;27.400;2023-01-28T06:48:11;100307.09;;;4.72;100.00
38303;BME280;24103;42.454;27.400;2023-01-28T06:50:36;100305.91;;;4.81;100.00
38303;BME280;24103;42.454;27.400;2023-01-28T06:53:02;100305.63;;;4.89;100.00
38303;BME280;24103;42.454;27.400;2023-01-28T06:55:27;100298.72;;;4.86;100.00
38303;BME280;24103;42.454;27.400;2023-01-28T06:57:52;100303.06;;;4.64;100.00
38303;BME280;24103;42.454;27.400;2023-01-28T07:00:18;100299.88;;;4.79;100.00
38303;BME280;24103;42.454;27.400;2023-01-28T07:02:43;100296.44;;;5.01;100.00
38303;BME280;24103;42.454;27.400;2023-01-28T07:05:09;100289.41;;;5.01;100.00
38303;BME280;24103;42.454;27.400;2023-01-28T07:07:34;100289.75;;;4.46;100.00
38303;BME280;24103;42.454;27.400;2023-01-28T07:10:00;100294.81;;;4.74;100.00
38303;BME280;24103;42.454;27.400;2023-01-28T07:12:25;100300.28;;;4.92;100.00
38303;BME280;24103;42.454;27.400;2023-01-28T07:14:50;100308.53;;;5.03;100.00
38303;BME280;24103;42.454;27.400;2023-01-28T07:17:16;100297.78;;;5.11;98.07
38303;BME280;24103;42.454;27.400;2023-01-28T07:19:41;100293.94;;;5.20;98.59
38303;BME280;24103;42.454;27.400;2023-01-28T07:22:07;100297.63;;;5.36;99.95
38303;BME280;24103;42.454;27.400;2023-01-28T07:24:32;100299.19;;;5.42;99.33
38303;BME280;24103;42.454;27.400;2023-01-28T07:26:57;100310.75;;;5.36;95.65
38303;BME280;24103;42.454;27.400;2023-01-28T07:29:23;100305.22;;;5.22;93.70
38303;BME280;24103;42.454;27.400;2023-01-28T07:31:48;100308.31;;;5.09;93.57
38303;BME280;24103;42.454;27.400;2023-01-28T07:34:13;100300.25;;;5.36;92.44
38303;BME280;24103;42.454;27.400;2023-01-28T07:36:39;100308.88;;;5.40;88.28
38303;BME280;24103;42.454;27.400;2023-01-28T07:39:04;100318.38;;;5.64;92.90
38303;BME280;24103;42.454;27.400;2023-01-28T07:41:31;100324.06;;;5.74;91.80
38303;BME280;24103;42.454;27.400;2023-01-28T07:43:57;100320.03;;;5.87;85.54
38303;BME280;24103;42.454;27.400;2023-01-28T07:46:22;100311.16;;;5.90;82.89
38303;BME280;24103;42.454;27.400;2023-01-28T07:48:48;100323.88;;;6.01;84.34
38303;BME280;24103;42.454;27.400;2023-01-28T07:51:13;100327.41;;;6.20;86.66
38303;BME280;24103;42.454;27.400;2023-01-28T07:53:38;100324.16;;;6.34;84.48
38303;BME280;24103;42.454;27.400;2023-01-28T07:56:04;100320.03;;;6.28;79.11
38303;BME280;24103;42.454;27.400;2023-01-28T07:58:30;100326.59;;;6.18;78.98
38303;BME280;24103;42.454;27.400;2023-01-28T08:00:58;100330.66;;;6.05;83.39
38303;BME280;24103;42.454;27.400;2023-01-28T08:03:24;100335.53;;;5.92;81.71
38303;BME280;24103;42.454;27.400;2023-01-28T08:05:50;100335.41;;;5.95;81.26
38303;BME280;24103;42.454;27.400;2023-01-28T08:08:17;100341.44;;;6.19;86.45
38303;BME280;24103;42.454;27.400;2023-01-28T08:10:42;100340.44;;;6.01;81.84
38303;BME280;24103;42.454;27.400;2023-01-28T08:13:08;100334.06;;;6.07;80.39
38303;BME280;24103;42.454;27.400;2023-01-28T08:15:34;100343.53;;;6.11;84.64
38303;BME280;24103;42.454;27.400;2023-01-28T08:18:00;100333.75;;;6.35;78.19
38303;BME280;24103;42.454;27.400;2023-01-28T08:20:27;100333.22;;;6.48;77.07
38303;BME280;24103;42.454;27.400;2023-01-28T08:22:52;100334.38;;;6.61;72.69
38303;BME280;24103;42.454;27.400;2023-01-28T08:25:18;100337.69;;;6.64;70.02
38303;BME280;24103;42.454;27.400;2023-01-28T08:27:43;100345.78;;;6.60;72.03
38303;BME280;24103;42.454;27.400;2023-01-28T08:30:15;100333.06;;;6.51;68.99
38303;BME280;24103;42.454;27.400;2023-01-28T08:32:40;100344.66;;;6.66;69.98
38303;BME280;24103;42.454;27.400;2023-01-28T08:35:06;100350.81;;;6.64;69.85
38303;BME280;24103;42.454;27.400;2023-01-28T08:37:31;100346.06;;;6.54;68.92
38303;BME280;24103;42.454;27.400;2023-01-28T08:39:57;100346.53;;;6.43;72.08
38303;BME280;24103;42.454;27.400;2023-01-28T08:44:51;100356.00;;;6.66;70.15
38303;BME280;24103;42.454;27.400;2023-01-28T08:47:18;100359.56;;;6.65;69.65
38303;BME280;24103;42.454;27.400;2023-01-28T08:49:44;100344.16;;;6.57;70.04
38303;BME280;24103;42.454;27.400;2023-01-28T08:52:09;100347.16;;;6.88;70.95
38303;BME280;24103;42.454;27.400;2023-01-28T08:54:35;100350.25;;;6.58;73.63
38303;BME280;24103;42.454;27.400;2023-01-28T08:57:03;100335.81;;;6.87;66.54
38303;BME280;24103;42.454;27.400;2023-01-28T08:59:28;100322.41;;;6.93;65.12
38303;BME280;24103;42.454;27.400;2023-01-28T09:01:53;100332.53;;;7.01;63.97
38303;BME280;24103;42.454;27.400;2023-01-28T09:04:19;100318.28;;;7.07;61.22
38303;BME280;24103;42.454;27.400;2023-01-28T09:06:44;100319.41;;;7.20;60.91
38303;BME280;24103;42.454;27.400;2023-01-28T09:09:09;100324.13;;;7.31;60.38
38303;BME280;24103;42.454;27.400;2023-01-28T09:11:35;100319.03;;;7.28;60.49
38303;BME280;24103;42.454;27.400;2023-01-28T09:14:00;100325.88;;;7.13;63.51
38303;BME280;24103;42.454;27.400;2023-01-28T09:16:25;100328.75;;;7.26;63.53
38303;BME280;24103;42.454;27.400;2023-01-28T09:18:51;100319.94;;;7.46;61.69
38303;BME280;24103;42.454;27.400;2023-01-28T09:21:18;100321.28;;;7.35;61.74
38303;BME280;24103;42.454;27.400;2023-01-28T09:23:43;100319.63;;;7.52;59.19
38303;BME280;24103;42.454;27.400;2023-01-28T09:26:09;100317.19;;;7.30;60.92
38303;BME280;24103;42.454;27.400;2023-01-28T09:28:35;100313.72;;;7.29;62.96
38303;BME280;24103;42.454;27.400;2023-01-28T09:31:03;100313.50;;;7.15;62.30
38303;BME280;24103;42.454;27.400;2023-01-28T09:33:29;100315.91;;;7.56;61.69
38303;BME280;24103;42.454;27.400;2023-01-28T09:35:55;100316.50;;;7.44;61.06
38303;BME280;24103;42.454;27.400;2023-01-28T09:38:20;100326.69;;;7.32;58.57
38303;BME280;24103;42.454;27.400;2023-01-28T09:40:47;100327.41;;;7.36;61.13
38303;BME280;24103;42.454;27.400;2023-01-28T09:45:59;100336.00;;;7.40;60.95
38303;BME280;24103;42.454;27.400;2023-01-28T09:48:27;100341.50;;;6.97;60.22
38303;BME280;24103;42.454;27.400;2023-01-28T09:50:58;100343.84;;;7.03;63.95
38303;BME280;24103;42.454;27.400;2023-01-28T09:53:29;100342.72;;;6.90;60.79
38303;BME280;24103;42.454;27.400;2023-01-28T09:56:02;100348.09;;;6.87;63.53
38303;BME280;24103;42.454;27.400;2023-01-28T09:58:28;100355.94;;;6.68;63.38
38303;BME280;24103;42.454;27.400;2023-01-28T10:00:56;100364.19;;;5.98;67.48
38303;BME280;24103;42.454;27.400;2023-01-28T10:08:52;100379.56;;;5.17;73.14
38303;BME280;24103;42.454;27.400;2023-01-28T10:16:35;100381.00;;;5.26;74.22
38303;BME280;24103;42.454;27.400;2023-01-28T10:19:06;100375.94;;;5.44;76.21
38303;BME280;24103;42.454;27.400;2023-01-28T10:21:39;100373.53;;;5.61;74.44
38303;BME280;24103;42.454;27.400;2023-01-28T10:26:35;100374.97;;;5.24;76.64
38303;BME280;24103;42.454;27.400;2023-01-28T10:29:10;100389.44;;;5.11;80.25
38303;BME280;24103;42.454;27.400;2023-01-28T10:31:38;100389.53;;;5.31;81.37
38303;BME280;24103;42.454;27.400;2023-01-28T10:34:07;100384.84;;;5.62;81.32
38303;BME280;24103;42.454;27.400;2023-01-28T10:36:34;100384.78;;;5.63;77.70
38303;BME280;24103;42.454;27.400;2023-01-28T10:39:00;100390.22;;;5.13;81.12
38303;BME280;24103;42.454;27.400;2023-01-28T10:41:25;100387.81;;;5.08;84.08
38303;BME280;24103;42.454;27.400;2023-01-28T10:43:51;100403.59;;;4.82;85.36
38303;BME280;24103;42.454;27.400;2023-01-28T10:46:22;100403.47;;;5.10;87.82
38303;BME280;24103;42.454;27.400;2023-01-28T10:48:55;100388.97;;;4.99;85.83
38303;BME280;24103;42.454;27.400;2023-01-28T10:51:29;100420.03;;;4.87;87.44
38303;BME280;24103;42.454;27.400;2023-01-28T10:53:54;100416.59;;;4.85;88.24
38303;BME280;24103;42.454;27.400;2023-01-28T10:56:30;100419.31;;;4.82;90.12
38303;BME280;24103;42.454;27.400;2023-01-28T11:01:22;100409.66;;;4.58;90.08
38303;BME280;24103;42.454;27.400;2023-01-28T11:03:52;100413.28;;;4.79;89.14
38303;BME280;24103;42.454;27.400;2023-01-28T11:06:25;100409.94;;;4.99;87.39
38303;BME280;24103;42.454;27.400;2023-01-28T11:08:50;100413.69;;;4.92;84.75
38303;BME280;24103;42.454;27.400;2023-01-28T11:11:21;100411.59;;;4.78;85.84
38303;BME280;24103;42.454;27.400;2023-01-28T11:13:48;100411.69;;;4.75;87.57
38303;BME280;24103;42.454;27.400;2023-01-28T11:16:16;100422.69;;;4.60;85.40
38303;BME280;24103;42.454;27.400;2023-01-28T11:18:47;100419.34;;;4.56;84.88
38303;BME280;24103;42.454;27.400;2023-01-28T11:21:15;100419.88;;;4.66;87.77
38303;BME280;24103;42.454;27.400;2023-01-28T11:23:49;100428.47;;;4.45;83.05
38303;BME280;24103;42.454;27.400;2023-01-28T11:26:19;100426.38;;;4.29;85.89
38303;BME280;24103;42.454;27.400;2023-01-28T11:28:45;100437.66;;;4.31;87.40
38303;BME280;24103;42.454;27.400;2023-01-28T11:31:12;100444.84;;;4.24;87.33
38303;BME280;24103;42.454;27.400;2023-01-28T11:33:42;100438.69;;;3.99;88.32
38303;BME280;24103;42.454;27.400;2023-01-28T11:36:15;100442.84;;;4.06;88.22
38303;BME280;24103;42.454;27.400;2023-01-28T11:38:51;100440.69;;;3.91;89.99
38303;BME280;24103;42.454;27.400;2023-01-28T11:41:17;100446.03;;;3.87;90.30
38303;BME280;24103;42.454;27.400;2023-01-28T11:43:43;100452.16;;;3.86;90.55
38303;BME280;24103;42.454;27.400;2023-01-28T11:56:32;100449.63;;;4.12;90.20
38303;BME280;24103;42.454;27.400;2023-01-28T11:59:13;100447.09;;;4.09;87.88
38303;BME280;24103;42.454;27.400;2023-01-28T12:09:50;100453.13;;;4.37;90.66
38303;BME280;24103;42.454;27.400;2023-01-28T12:32:49;100460.22;;;4.07;87.04
38303;BME280;24103;42.454;27.400;2023-01-28T12:45:57;100462.72;;;4.37;83.31
38303;BME280;24103;42.454;27.400;2023-01-28T12:50:55;100462.09;;;4.03;85.83
38303;BME280;24103;42.454;27.400;2023-01-28T13:01:39;100470.81;;;4.31;88.19
38303;BME280;24103;42.454;27.400;2023-01-28T13:07:03;100484.16;;;4.48;85.49
38303;BME280;24103;42.454;27.400;2023-01-28T13:09:32;100489.41;;;4.21;84.08
38303;BME280;24103;42.454;27.400;2023-01-28T13:11:59;100484.88;;;4.00;85.89
38303;BME280;24103;42.454;27.400;2023-01-28T13:14:27;100488.88;;;4.10;88.17
38303;BME280;24103;42.454;27.400;2023-01-28T13:16:55;100499.28;;;4.12;88.75
38303;BME280;24103;42.454;27.400;2023-01-28T13:19:21;100495.69;;;4.16;89.17
38303;BME280;24103;42.454;27.400;2023-01-28T13:21:47;100500.78;;;3.92;89.42
38303;BME280;24103;42.454;27.400;2023-01-28T13:26:43;100505.56;;;3.78;91.77
38303;BME280;24103;42.454;27.400;2023-01-28T13:31:50;100511.13;;;3.67;92.04
38303;BME280;24103;42.454;27.400;2023-01-28T13:34:27;100514.50;;;3.71;93.18
38303;BME280;24103;42.454;27.400;2023-01-28T13:36:54;100515.84;;;3.54;94.45
38303;BME280;24103;42.454;27.400;2023-01-28T13:39:23;100522.72;;;3.58;95.05
38303;BME280;24103;42.454;27.400;2023-01-28T13:42:35;100521.25;;;3.48;93.43
38303;BME280;24103;42.454;27.400;2023-01-28T13:44:36;100520.31;;;3.50;93.42
38303;BME280;24103;42.454;27.400;2023-01-28T13:49:38;100528.28;;;3.46;93.51
38303;BME280;24103;42.454;27.400;2023-01-28T13:54:35;100537.25;;;3.37;94.95
38303;BME280;24103;42.454;27.400;2023-01-28T14:02:16;100546.94;;;3.63;91.74
38303;BME280;24103;42.454;27.400;2023-01-28T14:04:50;100555.91;;;3.55;92.89
38303;BME280;24103;42.454;27.400;2023-01-28T14:20:04;100575.38;;;3.11;94.71
38303;BME280;24103;42.454;27.400;2023-01-28T14:22:31;100585.72;;;3.14;97.50
38303;BME280;24103;42.454;27.400;2023-01-28T14:24:57;100587.38;;;3.19;98.42
38303;BME280;24103;42.454;27.400;2023-01-28T14:27:26;100596.94;;;3.18;99.43
38303;BME280;24103;42.454;27.400;2023-01-28T14:32:47;100592.63;;;3.17;100.00
38303;BME280;24103;42.454;27.400;2023-01-28T14:35:47;100597.81;;;3.19;100.00
38303;BME280;24103;42.454;27.400;2023-01-28T14:38:09;100604.66;;;3.23;100.00
38303;BME280;24103;42.454;27.400;2023-01-28T14:40:38;100610.66;;;3.26;100.00
38303;BME280;24103;42.454;27.400;2023-01-28T14:43:08;100607.22;;;3.24;99.35
38303;BME280;24103;42.454;27.400;2023-01-28T14:45:49;100605.34;;;3.29;98.67
38303;BME280;24103;42.454;27.400;2023-01-28T14:56:24;100617.78;;;3.20;97.48
38303;BME280;24103;42.454;27.400;2023-01-28T14:58:53;100620.44;;;3.18;98.45
38303;BME280;24103;42.454;27.400;2023-01-28T15:01:25;100635.25;;;3.18;98.46
38303;BME280;24103;42.454;27.400;2023-01-28T15:03:51;100625.09;;;3.07;97.28
38303;BME280;24103;42.454;27.400;2023-01-28T15:06:18;100628.69;;;3.03;99.88
38303;BME280;24103;42.454;27.400;2023-01-28T15:08:45;100635.06;;;2.91;99.74